Time;durP1;ratioP1;P1;durP2;ratioP2;P2;SDS_P1;SDS_P2;PMS_P1;PMS_P2;Temp;Humidity;BMP_temperature;BMP_pressure;BME280_temperature;BME280_humidity;BME280_pressure;Samples;Min_cycle;Max_cycle;Signal;HPM_P1;HPM_P2
2021/05/18 00:01:26;;;;;;;20.25;8.07;;;;;;;10.37;100.00;100461.81;5056031;28;20043;-59
2021/05/18 00:03:53;;;;;;;23.20;8.48;;;;;;;10.21;100.00;100454.63;5059701;28;20037;-59
2021/05/18 00:06:21;;;;;;;14.13;6.50;;;;;;;10.33;100.00;100462.13;5057316;28;20067;-59
2021/05/18 00:11:45;;;;;;;22.90;7.43;;;;;;;10.51;100.00;100458.44;5057281;28;20045;-58
2021/05/18 00:14:14;;;;;;;25.27;8.00;;;;;;;10.50;100.00;100454.94;5054406;28;20052;-58
2021/05/18 00:16:42;;;;;;;23.13;8.27;;;;;;;10.66;100.00;100454.03;5059324;28;20051;-58
2021/05/18 00:19:09;;;;;;;20.55;7.28;;;;;;;10.51;100.00;100450.41;5058339;28;20050;-57
2021/05/18 00:21:37;;;;;;;17.33;7.05;;;;;;;10.62;100.00;100447.38;5057513;28;20040;-56
2021/05/18 00:24:05;;;;;;;17.85;7.55;;;;;;;10.78;100.00;100451.00;5057863;28;20502;-55
2021/05/18 00:26:32;;;;;;;24.98;9.63;;;;;;;10.67;100.00;100449.53;5061248;28;20055;-57
2021/05/18 00:29:01;;;;;;;24.05;8.15;;;;;;;10.70;100.00;100443.00;5060864;28;20049;-55
2021/05/18 00:31:28;;;;;;;20.13;7.68;;;;;;;10.77;100.00;100443.97;5056851;28;20041;-57
2021/05/18 00:33:55;;;;;;;21.08;7.70;;;;;;;10.59;100.00;100452.22;5044923;28;20040;-55
2021/05/18 00:36:23;;;;;;;30.58;8.90;;;;;;;10.17;100.00;100444.28;5060478;28;20045;-56
2021/05/18 00:38:50;;;;;;;22.50;7.85;;;;;;;10.42;100.00;100448.75;5056834;28;20206;-56
2021/05/18 00:41:18;;;;;;;27.23;8.93;;;;;;;10.19;100.00;100452.13;5061449;28;20049;-55
2021/05/18 00:43:45;;;;;;;23.23;8.93;;;;;;;10.41;100.00;100453.28;5061532;28;20527;-56
2021/05/18 00:46:14;;;;;;;25.45;7.80;;;;;;;10.54;100.00;100454.59;5060478;28;20440;-56
2021/05/18 00:48:56;;;;;;;18.48;8.93;;;;;;;10.51;100.00;100455.75;5064237;28;20379;-54
2021/05/18 00:51:24;;;;;;;25.80;8.13;;;;;;;10.54;100.00;100454.59;5057971;28;20432;-55
2021/05/18 00:53:52;;;;;;;24.80;9.50;;;;;;;10.41;100.00;100447.94;5062679;28;20049;-55
2021/05/18 00:56:31;;;;;;;22.10;9.02;;;;;;;10.56;100.00;100450.75;5056836;28;20033;-56
2021/05/18 00:59:01;;;;;;;21.55;7.80;;;;;;;10.48;100.00;100450.75;5063864;28;20110;-56
2021/05/18 01:01:31;;;;;;;22.38;7.93;;;;;;;10.56;100.00;100458.75;5060717;28;20341;-55
2021/05/18 01:03:59;;;;;;;28.67;8.55;;;;;;;10.43;100.00;100463.78;5060563;28;20032;-56
2021/05/18 01:06:30;;;;;;;22.58;9.13;;;;;;;10.40;100.00;100458.78;5061294;28;20464;-56
2021/05/18 01:08:58;;;;;;;19.92;7.47;;;;;;;10.48;100.00;100456.09;5061968;28;20047;-55
2021/05/18 01:11:28;;;;;;;24.27;8.98;;;;;;;10.29;100.00;100463.47;5056845;28;20101;-54
2021/05/18 01:13:59;;;;;;;19.40;8.05;;;;;;;10.44;100.00;100460.94;5060766;28;20036;-56
2021/05/18 01:16:30;;;;;;;23.08;8.32;;;;;;;10.31;100.00;100456.09;5059759;28;20079;-56
2021/05/18 01:18:58;;;;;;;22.73;9.05;;;;;;;10.41;100.00;100465.81;5062143;28;20059;-55
2021/05/18 01:21:27;;;;;;;23.58;8.20;;;;;;;10.41;100.00;100460.47;5057432;28;20621;-57
2021/05/18 01:23:54;;;;;;;19.70;8.98;;;;;;;10.52;100.00;100457.44;5059831;28;20062;-54
2021/05/18 01:26:23;;;;;;;24.42;8.57;;;;;;;10.48;100.00;100469.44;5057421;28;20049;-56
2021/05/18 01:28:51;;;;;;;20.85;7.28;;;;;;;10.47;100.00;100467.78;5055760;28;20044;-56
2021/05/18 01:31:22;;;;;;;25.15;8.38;;;;;;;10.45;100.00;100472.47;5058475;28;20044;-56
2021/05/18 01:33:50;;;;;;;20.92;9.07;;;;;;;10.54;100.00;100460.75;5059141;28;20048;-56
2021/05/18 01:36:19;;;;;;;19.58;8.93;;;;;;;10.62;100.00;100468.75;5062250;28;20044;-54
2021/05/18 01:38:56;;;;;;;20.73;10.10;;;;;;;10.64;100.00;100471.22;5063169;28;20041;-56
2021/05/18 01:44:10;;;;;;;18.70;8.40;;;;;;;10.41;100.00;100479.16;5060320;28;20226;-55
2021/05/18 01:46:38;;;;;;;26.42;9.50;;;;;;;10.52;100.00;100478.78;5061690;28;20589;-56
2021/05/18 01:49:07;;;;;;;24.13;8.18;;;;;;;10.66;100.00;100474.53;5058497;28;20048;-56
2021/05/18 01:51:37;;;;;;;25.05;11.02;;;;;;;10.48;100.00;100480.13;5055753;28;20255;-54
2021/05/18 01:54:09;;;;;;;20.88;8.52;;;;;;;10.39;100.00;100473.13;5057743;28;20048;-55
2021/05/18 01:56:45;;;;;;;26.35;8.60;;;;;;;10.20;100.00;100480.47;5059132;28;20452;-55
2021/05/18 01:59:17;;;;;;;22.60;9.88;;;;;;;10.47;100.00;100481.13;5059625;28;20052;-56
2021/05/18 02:01:46;;;;;;;24.35;8.52;;;;;;;10.45;100.00;100483.16;5058510;28;20053;-56
2021/05/18 02:04:24;;;;;;;22.27;8.63;;;;;;;10.49;100.00;100489.81;5058064;28;20348;-56
2021/05/18 02:06:52;;;;;;;17.67;8.20;;;;;;;10.51;100.00;100482.44;5060383;28;20055;-56
2021/05/18 02:09:20;;;;;;;20.35;8.65;;;;;;;10.34;100.00;100484.31;5056213;28;20040;-57
2021/05/18 02:11:50;;;;;;;26.38;9.00;;;;;;;10.52;100.00;100486.78;5058956;28;20048;-56
2021/05/18 02:14:23;;;;;;;28.17;9.45;;;;;;;10.50;100.00;100486.13;5056468;28;20345;-56
2021/05/18 02:16:52;;;;;;;18.75;8.48;;;;;;;10.24;100.00;100491.66;5059700;28;20045;-55
2021/05/18 02:19:29;;;;;;;22.48;8.85;;;;;;;10.16;100.00;100490.66;5055060;28;20368;-55
2021/05/18 02:22:14;;;;;;;25.83;11.30;;;;;;;10.17;100.00;100486.16;5061776;28;20048;-56
2021/05/18 02:24:47;;;;;;;23.63;9.57;;;;;;;10.21;100.00;100498.16;5057658;28;20048;-55
2021/05/18 02:27:14;;;;;;;22.98;8.57;;;;;;;10.29;100.00;100492.81;5059394;28;20044;-54
2021/05/18 02:29:43;;;;;;;26.95;8.98;;;;;;;10.33;100.00;100496.81;5056284;28;20040;-56
2021/05/18 02:32:10;;;;;;;23.45;9.27;;;;;;;10.14;100.00;100499.84;5058945;28;20052;-55
2021/05/18 02:34:38;;;;;;;26.83;9.07;;;;;;;10.16;100.00;100508.50;5058785;28;20037;-54
2021/05/18 02:37:06;;;;;;;20.60;8.45;;;;;;;10.24;100.00;100507.66;5064708;28;20364;-56
2021/05/18 02:39:33;;;;;;;24.08;8.82;;;;;;;10.24;100.00;100508.50;5056349;28;20049;-56
2021/05/18 02:42:01;;;;;;;25.05;9.90;;;;;;;10.15;100.00;100506.84;5060030;28;20079;-56
2021/05/18 02:44:33;;;;;;;27.30;11.23;;;;;;;10.10;100.00;100515.34;5057593;28;20033;-56
2021/05/18 02:49:47;;;;;;;19.80;9.38;;;;;;;10.03;100.00;100517.00;5055271;28;20405;-56
2021/05/18 02:52:15;;;;;;;26.98;10.82;;;;;;;9.99;100.00;100511.19;5060867;28;20071;-55
2021/05/18 02:54:47;;;;;;;22.63;9.10;;;;;;;10.06;100.00;100508.66;5056096;28;20064;-55
2021/05/18 02:57:20;;;;;;;22.50;9.55;;;;;;;10.04;100.00;100512.53;5058107;28;20045;-55
2021/05/18 02:59:48;;;;;;;21.85;8.77;;;;;;;10.02;100.00;100507.31;5057467;28;20043;-56
2021/05/18 03:02:15;;;;;;;37.50;9.88;;;;;;;10.00;100.00;100507.50;5059018;28;20054;-56
2021/05/18 03:04:44;;;;;;;22.65;8.65;;;;;;;9.96;100.00;100516.00;5056389;28;20040;-56
2021/05/18 03:07:11;;;;;;;24.90;9.43;;;;;;;9.86;100.00;100516.16;5060902;28;20490;-56
2021/05/18 03:09:39;;;;;;;25.15;9.45;;;;;;;9.87;100.00;100514.34;5057324;28;20383;-60
2021/05/18 03:12:06;;;;;;;25.20;10.07;;;;;;;9.82;100.00;100517.50;5056849;28;20052;-56
2021/05/18 03:14:34;;;;;;;22.00;8.82;;;;;;;9.98;100.00;100520.19;5054687;28;20048;-56
2021/05/18 03:17:02;;;;;;;23.52;8.65;;;;;;;9.92;100.00;100515.53;5059496;28;20403;-56
2021/05/18 03:19:29;;;;;;;17.13;7.72;;;;;;;10.01;100.00;100513.69;5055041;28;20071;-55
2021/05/18 03:21:57;;;;;;;22.33;9.27;;;;;;;9.96;100.00;100522.16;5060616;28;20037;-56
2021/05/18 03:24:24;;;;;;;19.55;9.90;;;;;;;10.16;100.00;100516.50;5054868;28;20033;-56
2021/05/18 03:26:52;;;;;;;25.15;10.10;;;;;;;10.19;100.00;100526.00;5057041;28;20051;-56
2021/05/18 03:29:22;;;;;;;26.60;10.98;;;;;;;10.06;100.00;100522.00;5055912;28;20056;-56
2021/05/18 03:34:39;;;;;;;24.00;10.07;;;;;;;10.16;100.00;100527.16;5056148;28;20424;-55
2021/05/18 03:37:12;;;;;;;25.52;11.95;;;;;;;10.09;100.00;100528.84;5056814;28;20327;-56
2021/05/18 03:39:41;;;;;;;25.77;10.25;;;;;;;10.29;100.00;100527.50;5051836;28;21308;-55
2021/05/18 03:42:11;;;;;;;22.33;9.82;;;;;;;10.42;100.00;100523.50;5057733;28;20040;-56
2021/05/18 03:44:52;;;;;;;19.17;9.95;;;;;;;10.32;100.00;100532.50;5056507;28;20052;-56
2021/05/18 03:53:14;;;;;;;21.83;10.90;;;;;;;10.22;100.00;100537.19;5016714;28;20052;-56
2021/05/18 03:58:38;;;;;;;17.42;10.05;;;;;;;10.11;100.00;100542.88;5059785;28;20056;-57
2021/05/18 04:03:58;;;;;;;17.55;8.90;;;;;;;10.09;100.00;100547.53;5056688;28;20041;-57
2021/05/18 04:17:39;;;;;;;19.80;8.73;;;;;;;10.11;100.00;100554.34;5028824;28;20361;-58
2021/05/18 04:20:18;;;;;;;15.45;7.78;;;;;;;10.23;100.00;100560.19;5055830;28;20340;-58
2021/05/18 04:25:48;;;;;;;19.45;7.85;;;;;;;10.23;100.00;100556.69;5049139;28;20056;-58
2021/05/18 04:39:47;;;;;;;16.27;8.05;;;;;;;10.09;100.00;100566.19;5054238;28;20217;-54
2021/05/18 04:50:47;;;;;;;13.43;6.32;;;;;;;10.42;100.00;100569.75;5052925;28;20318;-53
2021/05/18 04:53:21;;;;;;;14.35;6.68;;;;;;;10.23;100.00;100570.88;5056453;28;20044;-53
2021/05/18 05:01:26;;;;;;;14.53;6.27;;;;;;;10.62;100.00;100572.06;5052235;28;20045;-55
2021/05/18 05:04:05;;;;;;;14.32;6.38;;;;;;;10.57;100.00;100577.88;5058535;28;20048;-54
2021/05/18 05:06:42;;;;;;;13.18;6.68;;;;;;;10.50;100.00;100576.88;5057870;28;20124;-55
2021/05/18 05:09:19;;;;;;;10.25;6.10;;;;;;;10.95;100.00;100578.16;5055480;28;20071;-55
2021/05/18 05:14:37;;;;;;;14.85;6.63;;;;;;;10.62;100.00;100580.88;5059543;28;20306;-55
2021/05/18 05:17:05;;;;;;;11.82;7.13;;;;;;;10.77;100.00;100582.88;5058235;28;20059;-55
2021/05/18 05:19:32;;;;;;;14.45;7.10;;;;;;;10.87;100.00;100582.69;5056395;28;20052;-55
2021/05/18 05:22:01;;;;;;;14.65;7.85;;;;;;;10.52;100.00;100585.59;5058123;28;20059;-55
2021/05/18 05:24:29;;;;;;;19.15;9.05;;;;;;;10.48;100.00;100586.91;5056424;28;20033;-55
2021/05/18 05:26:57;;;;;;;19.33;8.70;;;;;;;10.66;100.00;100592.91;5058797;28;20039;-54
2021/05/18 05:29:25;;;;;;;17.83;8.30;;;;;;;10.71;100.00;100607.59;5055867;28;20175;-54
2021/05/18 05:31:54;;;;;;;19.15;8.63;;;;;;;11.13;100.00;100609.16;5062276;28;20049;-56
2021/05/18 05:34:23;;;;;;;14.73;8.10;;;;;;;11.06;100.00;100610.84;5060980;28;20380;-54
2021/05/18 05:36:50;;;;;;;18.10;7.72;;;;;;;10.84;100.00;100615.91;5057607;28;21240;-55
2021/05/18 05:39:21;;;;;;;21.70;8.38;;;;;;;11.39;100.00;100616.91;5059737;28;20040;-55
2021/05/18 05:41:50;;;;;;;17.48;7.75;;;;;;;11.05;100.00;100618.03;5059743;28;20139;-55
2021/05/18 05:44:17;;;;;;;17.60;7.05;;;;;;;11.41;100.00;100624.75;5062472;28;20432;-53
2021/05/18 05:46:45;;;;;;;12.20;6.60;;;;;;;11.47;100.00;100624.09;5057922;28;20071;-56
2021/05/18 05:49:12;;;;;;;13.68;6.20;;;;;;;11.36;100.00;100623.44;5065538;28;20048;-55
2021/05/18 05:51:40;;;;;;;12.00;6.40;;;;;;;11.33;100.00;100621.13;5059153;28;20729;-55
2021/05/18 05:54:08;;;;;;;17.70;8.93;;;;;;;11.98;100.00;100626.34;5057453;28;20044;-53
2021/05/18 05:56:36;;;;;;;19.33;7.35;;;;;;;11.35;100.00;100632.50;5057741;28;20041;-54
2021/05/18 05:59:06;;;;;;;15.65;7.53;;;;;;;11.09;100.00;100631.91;5062869;28;20337;-55
2021/05/18 06:01:34;;;;;;;13.13;6.00;;;;;;;11.41;100.00;100635.47;5059258;28;20124;-54
2021/05/18 06:04:01;;;;;;;17.77;7.78;;;;;;;11.45;100.00;100634.94;5062817;28;20064;-52
2021/05/18 06:06:29;;;;;;;13.45;6.70;;;;;;;11.37;100.00;100646.50;5060723;28;20063;-55
2021/05/18 06:08:56;;;;;;;15.25;6.60;;;;;;;11.73;100.00;100647.84;5060900;28;20048;-55
2021/05/18 06:11:30;;;;;;;13.40;6.38;;;;;;;11.39;100.00;100650.84;5054207;28;20075;-56
2021/05/18 06:14:05;;;;;;;14.20;6.47;;;;;;;11.32;100.00;100648.03;5062318;28;20415;-56
2021/05/18 06:47:00;;;;;;;8.90;4.68;;;;;;;12.51;100.00;100680.03;5061836;28;20562;-56
2021/05/18 06:49:32;;;;;;;12.45;4.32;;;;;;;14.20;100.00;100677.66;5058835;28;20051;-56
2021/05/18 06:52:00;;;;;;;4.90;3.55;;;;;;;12.51;100.00;100680.03;5058498;28;20109;-55
2021/05/18 06:54:27;;;;;;;10.05;4.28;;;;;;;13.46;100.00;100675.16;5061542;28;20040;-56
2021/05/18 06:56:58;;;;;;;12.23;4.75;;;;;;;12.95;100.00;100690.03;5056721;28;20041;-56
2021/05/18 07:02:11;;;;;;;10.38;4.40;;;;;;;13.20;100.00;100679.91;5061162;28;20059;-56
2021/05/18 07:04:39;;;;;;;17.27;5.18;;;;;;;12.19;100.00;100692.63;5059111;28;20961;-55
2021/05/18 07:07:17;;;;;;;6.38;4.30;;;;;;;12.48;100.00;100697.28;5060966;28;20056;-52
2021/05/18 07:09:45;;;;;;;6.40;4.90;;;;;;;13.15;100.00;100689.53;5055936;28;20087;-55
2021/05/18 07:12:12;;;;;;;8.98;4.80;;;;;;;13.02;100.00;100695.50;5057882;28;20055;-52
2021/05/18 07:14:40;;;;;;;7.28;4.88;;;;;;;12.72;100.00;100695.44;5054748;28;20041;-53
2021/05/18 07:17:07;;;;;;;10.05;5.40;;;;;;;13.40;100.00;100701.69;5056408;28;20041;-54
2021/05/18 07:19:35;;;;;;;9.02;4.90;;;;;;;13.99;100.00;100707.19;5058203;28;20045;-54
2021/05/18 07:22:03;;;;;;;8.05;5.00;;;;;;;12.95;100.00;100689.22;5057514;28;20078;-52
2021/05/18 07:24:31;;;;;;;8.95;6.15;;;;;;;13.00;100.00;100695.69;5057521;28;20045;-53
2021/05/18 07:26:59;;;;;;;9.00;6.07;;;;;;;14.12;100.00;100705.50;5057737;28;20052;-55
2021/05/18 07:29:26;;;;;;;12.43;6.35;;;;;;;13.75;100.00;100706.47;5059158;28;20044;-54
2021/05/18 07:31:54;;;;;;;6.70;5.65;;;;;;;14.56;100.00;100697.44;5058494;28;20053;-54
2021/05/18 07:34:22;;;;;;;8.77;6.25;;;;;;;13.94;100.00;100694.34;5056015;28;20450;-53
2021/05/18 07:36:49;;;;;;;7.80;6.20;;;;;;;14.85;100.00;100701.88;5056593;28;20048;-56
2021/05/18 07:39:17;;;;;;;6.93;5.88;;;;;;;15.22;100.00;100696.38;5056019;28;20300;-55
2021/05/18 07:41:45;;;;;;;8.23;5.32;;;;;;;14.79;100.00;100702.66;5057494;28;20048;-57
2021/05/18 07:44:12;;;;;;;8.82;6.03;;;;;;;13.30;100.00;100701.09;5057856;28;20056;-56
2021/05/18 07:46:41;;;;;;;7.28;6.47;;;;;;;13.40;100.00;100708.91;5060645;28;20041;-56
2021/05/18 07:49:14;;;;;;;6.18;5.40;;;;;;;12.82;100.00;100697.88;5060815;28;20045;-57
2021/05/18 08:00:04;;;;;;;7.50;5.10;;;;;;;13.95;100.00;100704.88;5057071;28;20055;-57
2021/05/18 08:05:21;;;;;;;6.38;3.92;;;;;;;13.89;100.00;100702.97;5058381;28;20497;-56
2021/05/18 08:07:52;;;;;;;7.82;3.95;;;;;;;13.66;100.00;100703.06;5056988;28;20067;-56
2021/05/18 08:10:23;;;;;;;7.65;4.00;;;;;;;13.27;100.00;100701.47;5060760;28;20044;-56
2021/05/18 08:12:51;;;;;;;5.00;3.53;;;;;;;12.73;100.00;100705.97;5056569;28;20040;-56
2021/05/18 08:15:33;;;;;;;9.82;4.30;;;;;;;14.23;100.00;100709.53;5060175;28;20047;-56
2021/05/18 08:18:13;;;;;;;7.22;3.80;;;;;;;14.35;100.00;100707.19;5058280;28;20071;-56
2021/05/18 10:37:26;;;;;;;8.23;3.10;;;;;;;17.02;100.00;100723.13;5054299;28;20076;-57
2021/05/18 10:40:26;;;;;;;4.57;3.30;;;;;;;15.16;100.00;100719.50;5057582;28;20469;-57
2021/05/18 10:43:28;;;;;;;3.85;2.90;;;;;;;15.54;100.00;100727.22;5059174;28;20490;-57
2021/05/18 10:46:20;;;;;;;4.70;3.35;;;;;;;17.58;100.00;100716.41;5057870;28;20120;-58
2021/05/18 10:48:56;;;;;;;3.13;2.83;;;;;;;18.75;100.00;100718.09;5061731;28;20055;-57
2021/05/18 10:51:34;;;;;;;5.20;2.63;;;;;;;19.36;100.00;100726.56;5055378;28;20074;-57
2021/05/18 10:54:14;;;;;;;3.53;3.00;;;;;;;16.16;100.00;100721.91;5058304;28;20052;-57
2021/05/18 10:57:05;;;;;;;3.88;3.20;;;;;;;14.90;100.00;100730.88;5059431;28;20339;-56
2021/05/18 10:59:35;;;;;;;3.63;2.55;;;;;;;15.25;100.00;100730.94;5060130;28;20037;-56
2021/05/18 11:02:04;;;;;;;4.25;3.10;;;;;;;15.19;100.00;100720.97;5061449;28;20140;-57
2021/05/18 11:04:33;;;;;;;5.07;3.17;;;;;;;15.76;100.00;100737.88;5061930;28;20064;-57
2021/05/18 11:07:03;;;;;;;4.35;3.25;;;;;;;15.52;100.00;100733.81;5058539;28;20036;-57
2021/05/18 11:09:32;;;;;;;4.13;3.17;;;;;;;15.24;100.00;100729.28;5057868;28;20041;-57
2021/05/18 11:12:01;;;;;;;3.10;2.78;;;;;;;16.15;100.00;100720.28;5060182;28;20123;-57
2021/05/18 11:14:34;;;;;;;6.07;3.08;;;;;;;16.56;100.00;100721.16;5058592;28;20103;-57
2021/05/18 11:17:20;;;;;;;4.75;2.65;;;;;;;17.60;100.00;100719.69;5059174;28;20375;-57
2021/05/18 11:20:07;;;;;;;3.95;2.35;;;;;;;16.56;100.00;100722.03;5056287;28;20045;-57
2021/05/18 11:25:36;;;;;;;5.55;3.10;;;;;;;16.55;100.00;100724.94;5057273;28;20037;-58
2021/05/18 11:28:13;;;;;;;4.88;2.90;;;;;;;17.45;100.00;100717.25;5059386;28;20593;-57
2021/05/18 11:30:42;;;;;;;6.13;2.60;;;;;;;17.59;100.00;100723.44;5055757;28;20085;-57
2021/05/18 11:33:10;;;;;;;5.15;2.38;;;;;;;19.65;100.00;100724.16;5059908;28;20179;-57
2021/05/18 11:35:38;;;;;;;4.93;2.63;;;;;;;18.22;100.00;100724.69;5060828;28;20033;-57
2021/05/18 11:38:12;;;;;;;3.75;2.42;;;;;;;17.08;100.00;100714.22;5059675;28;20040;-57
2021/05/18 11:40:44;;;;;;;5.68;2.80;;;;;;;16.53;100.00;100719.75;5053334;28;20150;-57
2021/05/18 11:43:20;;;;;;;3.45;2.60;;;;;;;16.59;100.00;100720.78;5060663;28;20059;-57
2021/05/18 11:45:51;;;;;;;5.57;3.00;;;;;;;16.97;100.00;100722.94;5056770;28;20053;-57
2021/05/18 11:48:19;;;;;;;4.90;3.10;;;;;;;18.44;100.00;100725.16;5055063;28;20045;-57
2021/05/18 11:51:00;;;;;;;6.80;3.13;;;;;;;17.13;100.00;100718.97;5054837;28;20161;-57
2021/05/18 11:53:33;;;;;;;3.40;2.45;;;;;;;18.88;100.00;100726.16;5055583;28;20045;-57
2021/05/18 11:56:18;;;;;;;4.03;2.50;;;;;;;17.56;100.00;100723.88;5057697;28;20142;-57
2021/05/18 11:58:46;;;;;;;4.72;2.60;;;;;;;18.08;100.00;100720.41;5057972;28;20115;-57
2021/05/18 12:01:14;;;;;;;2.80;2.17;;;;;;;18.36;100.00;100730.84;5033839;28;20040;-58
2021/05/18 12:03:42;;;;;;;3.65;2.22;;;;;;;16.62;100.00;100729.28;5061690;28;20045;-57
2021/05/18 12:06:10;;;;;;;4.47;1.90;;;;;;;16.89;100.00;100732.03;5060070;28;20052;-57
2021/05/18 12:08:38;;;;;;;2.35;1.95;;;;;;;17.98;100.00;100728.97;5062931;28;20428;-57
2021/05/18 12:11:17;;;;;;;2.75;2.00;;;;;;;18.35;100.00;100726.50;5057624;28;20068;-58
2021/05/18 12:13:47;;;;;;;2.92;1.90;;;;;;;19.14;100.00;100734.25;5056521;28;20052;-57
2021/05/18 12:16:16;;;;;;;3.10;1.90;;;;;;;18.74;100.00;100729.97;5057761;28;20322;-57
2021/05/18 12:18:45;;;;;;;3.60;2.20;;;;;;;19.87;100.00;100730.00;5060761;28;20690;-57
2021/05/18 12:21:14;;;;;;;2.97;1.98;;;;;;;19.27;100.00;100726.84;5057046;28;20051;-58
2021/05/18 12:23:43;;;;;;;2.75;2.13;;;;;;;16.60;100.00;100731.38;5061021;28;20323;-57
2021/05/18 12:26:12;;;;;;;2.00;1.70;;;;;;;18.10;100.00;100719.13;5063371;28;20310;-57
2021/05/18 12:28:53;;;;;;;6.38;1.52;;;;;;;16.28;100.00;100732.94;5061582;28;20048;-57
2021/05/18 12:31:30;;;;;;;2.85;1.83;;;;;;;16.12;100.00;100734.16;5058691;28;20048;-57
2021/05/18 12:33:58;;;;;;;4.03;2.38;;;;;;;18.77;98.03;100729.53;5061310;28;20175;-57
2021/05/18 12:36:27;;;;;;;3.55;2.15;;;;;;;19.72;97.30;100727.66;5062097;28;20045;-57
2021/05/18 12:39:12;;;;;;;4.50;2.28;;;;;;;19.14;100.00;100726.13;5061761;28;20290;-57
2021/05/18 12:41:55;;;;;;;2.70;1.92;;;;;;;20.30;100.00;100724.41;5059764;28;20045;-57
2021/05/18 12:44:24;;;;;;;5.20;2.15;;;;;;;20.30;87.04;100732.56;5058489;28;20129;-57
2021/05/18 12:46:58;;;;;;;2.50;1.70;;;;;;;19.14;99.59;100742.38;5060153;28;20074;-57
2021/05/18 12:49:30;;;;;;;2.10;1.90;;;;;;;18.67;100.00;100740.00;5060093;28;20399;-57
2021/05/18 12:52:09;;;;;;;2.42;1.70;;;;;;;19.87;83.03;100735.41;5058296;28;20045;-57
2021/05/18 12:54:39;;;;;;;2.35;1.90;;;;;;;17.19;100.00;100735.13;5059407;28;20051;-57
2021/05/18 12:57:07;;;;;;;3.55;2.03;;;;;;;18.10;100.00;100735.34;5062758;28;20155;-57
2021/05/18 12:59:36;;;;;;;2.25;1.55;;;;;;;16.95;100.00;100739.28;5059152;28;20094;-58
2021/05/18 13:02:04;;;;;;;2.55;2.22;;;;;;;19.92;88.31;100741.81;5060482;28;20040;-57
2021/05/18 13:04:38;;;;;;;1.98;1.55;;;;;;;18.15;100.00;100732.81;5060010;28;20044;-57
2021/05/18 13:07:13;;;;;;;3.47;1.95;;;;;;;16.95;100.00;100743.88;5063687;28;20438;-57
2021/05/18 13:09:41;;;;;;;3.00;1.92;;;;;;;17.59;100.00;100733.41;5059035;28;20571;-58
2021/05/18 13:12:14;;;;;;;4.00;1.80;;;;;;;15.88;100.00;100740.84;5060982;28;20036;-57
2021/05/18 13:14:55;;;;;;;2.25;1.90;;;;;;;18.03;100.00;100742.63;5060622;28;20041;-57
2021/05/18 13:17:24;;;;;;;4.45;2.08;;;;;;;18.03;100.00;100734.53;5059798;28;20150;-57
2021/05/18 13:20:03;;;;;;;3.28;2.03;;;;;;;19.88;78.83;100740.59;5057922;28;20310;-57
2021/05/18 13:22:33;;;;;;;2.10;1.80;;;;;;;22.69;73.79;100734.88;5063641;28;20040;-57
2021/05/18 13:27:52;;;;;;;2.75;1.50;;;;;;;18.93;72.57;100734.44;5061109;28;20041;-57
2021/05/18 13:30:21;;;;;;;4.65;2.10;;;;;;;16.57;100.00;100739.88;5057218;28;20044;-57
2021/05/18 13:32:52;;;;;;;2.80;1.75;;;;;;;16.70;100.00;100717.47;5060322;28;20056;-58
2021/05/18 13:35:21;;;;;;;3.60;2.20;;;;;;;18.06;100.00;100731.44;5061900;28;20040;-57
2021/05/18 13:37:49;;;;;;;1.98;1.80;;;;;;;20.42;95.87;100735.31;5059694;28;20044;-58
2021/05/18 13:40:19;;;;;;;3.08;2.00;;;;;;;20.09;96.36;100733.06;5056184;28;20344;-57
2021/05/18 13:42:50;;;;;;;2.35;1.92;;;;;;;22.02;68.50;100717.31;5061178;28;20387;-58
2021/05/18 13:45:18;;;;;;;3.08;1.77;;;;;;;21.63;56.89;100734.19;5059040;28;20068;-57
2021/05/18 13:47:46;;;;;;;4.57;2.13;;;;;;;19.98;94.61;100744.66;5057580;28;20048;-57
2021/05/18 13:50:14;;;;;;;6.47;2.40;;;;;;;21.14;73.58;100726.25;5060762;28;20052;-57
2021/05/18 13:52:42;;;;;;;2.95;2.63;;;;;;;18.88;82.68;100725.31;5064064;28;20045;-57
2021/05/18 13:55:10;;;;;;;2.40;2.08;;;;;;;22.82;57.76;100728.28;5060733;28;20047;-57
2021/05/18 13:57:38;;;;;;;3.13;2.30;;;;;;;18.75;99.40;100731.63;5060366;28;20037;-57
2021/05/18 14:00:09;;;;;;;2.60;2.20;;;;;;;18.57;87.77;100729.66;5058853;28;20569;-58
2021/05/18 14:02:37;;;;;;;2.40;1.98;;;;;;;17.16;100.00;100740.94;5059359;28;20482;-57
2021/05/18 14:05:06;;;;;;;2.80;2.15;;;;;;;20.74;81.73;100731.53;5060684;28;20037;-57
2021/05/18 14:10:25;;;;;;;1.65;1.48;;;;;;;16.92;100.00;100726.22;5054012;28;20057;-57
2021/05/18 14:12:53;;;;;;;1.60;1.50;;;;;;;17.72;100.00;100733.41;5060082;28;20052;-57
2021/05/18 14:15:20;;;;;;;3.10;1.90;;;;;;;16.45;100.00;100734.22;5058676;28;20274;-57
2021/05/18 14:17:48;;;;;;;1.55;1.42;;;;;;;16.32;100.00;100735.03;5063324;28;20046;-57
2021/05/18 14:20:15;;;;;;;3.35;1.60;;;;;;;16.70;100.00;100730.97;5059728;28;20060;-57
2021/05/18 14:22:43;;;;;;;2.63;1.42;;;;;;;16.05;100.00;100728.72;5055805;28;20136;-57
2021/05/18 14:25:11;;;;;;;2.88;1.27;;;;;;;16.52;100.00;100735.06;5061754;28;20052;-57
2021/05/18 14:27:57;;;;;;;1.83;1.50;;;;;;;16.70;100.00;100736.34;5058308;28;20071;-58
2021/05/18 14:30:25;;;;;;;3.17;1.52;;;;;;;17.15;100.00;100728.53;5051196;28;20068;-57
2021/05/18 14:32:53;;;;;;;3.92;1.67;;;;;;;16.87;100.00;100728.69;5058592;28;20044;-57
2021/05/18 14:35:21;;;;;;;2.25;1.70;;;;;;;16.09;100.00;100734.53;5059817;28;20207;-57
2021/05/18 14:37:54;;;;;;;2.30;2.10;;;;;;;15.45;100.00;100742.69;5062239;28;20052;-57
2021/05/18 14:40:29;;;;;;;4.38;2.38;;;;;;;15.49;100.00;100741.25;5055454;28;20040;-58
2021/05/18 14:42:59;;;;;;;3.80;2.83;;;;;;;15.45;100.00;100744.53;5060560;28;20483;-57
2021/05/18 14:45:31;;;;;;;3.80;2.90;;;;;;;15.39;100.00;100745.31;5060040;28;20057;-57
2021/05/18 14:53:42;;;;;;;10.38;3.58;;;;;;;15.39;100.00;100751.53;5060091;28;20049;-57
2021/05/18 14:56:10;;;;;;;3.20;2.78;;;;;;;15.54;100.00;100747.91;5056854;28;20049;-57
2021/05/18 14:58:38;;;;;;;2.70;2.50;;;;;;;15.44;100.00;100742.88;5061812;28;20041;-57
2021/05/18 15:01:06;;;;;;;4.85;2.67;;;;;;;16.26;100.00;100746.63;5056192;28;20090;-57
2021/05/18 15:03:34;;;;;;;2.90;2.60;;;;;;;16.70;100.00;100744.44;5059650;28;20461;-57
2021/05/18 15:06:02;;;;;;;4.13;2.47;;;;;;;16.51;100.00;100749.59;5062964;28;20040;-58
2021/05/18 15:08:30;;;;;;;5.65;2.60;;;;;;;17.63;100.00;100745.44;5060650;28;20032;-58
2021/05/18 15:11:05;;;;;;;2.83;2.40;;;;;;;19.19;100.00;100743.34;5057576;28;20128;-57
2021/05/18 15:13:34;;;;;;;4.95;2.60;;;;;;;19.68;100.00;100742.69;5052882;28;20045;-58
2021/05/18 15:16:01;;;;;;;2.90;2.33;;;;;;;18.01;100.00;100740.16;5060663;28;20055;-58
2021/05/18 15:18:30;;;;;;;3.35;2.95;;;;;;;18.64;100.00;100746.69;5062282;28;20063;-58
2021/05/18 15:20:58;;;;;;;4.93;3.05;;;;;;;18.80;100.00;100745.34;5056008;28;20379;-57
2021/05/18 15:23:27;;;;;;;2.90;2.50;;;;;;;19.25;100.00;100742.50;5058588;28;20110;-57
2021/05/18 15:25:56;;;;;;;3.30;2.42;;;;;;;20.83;96.39;100746.41;5057723;28;20045;-58
2021/05/18 15:28:23;;;;;;;3.80;2.97;;;;;;;19.17;100.00;100750.06;5057867;28;20083;-57
2021/05/18 15:30:51;;;;;;;2.60;2.40;;;;;;;18.32;100.00;100743.16;5053376;28;20032;-57
2021/05/18 15:33:20;;;;;;;4.05;2.70;;;;;;;18.90;100.00;100751.09;5059800;28;20170;-58
2021/05/18 15:35:47;;;;;;;3.10;2.70;;;;;;;21.20;70.62;100751.66;5059582;28;20044;-58
2021/05/18 15:38:15;;;;;;;2.92;2.40;;;;;;;21.40;82.34;100745.03;5061887;28;20108;-57
2021/05/18 15:40:44;;;;;;;4.95;2.63;;;;;;;21.83;68.08;100746.53;5056543;28;20049;-57
2021/05/18 15:43:13;;;;;;;2.25;1.88;;;;;;;19.99;84.94;100746.31;5058070;28;20440;-58
2021/05/18 15:45:40;;;;;;;3.30;2.33;;;;;;;20.30;77.21;100753.44;5055739;28;20332;-58
2021/05/18 15:48:08;;;;;;;4.63;2.25;;;;;;;19.58;98.35;100759.47;5058406;28;20112;-58
2021/05/18 15:50:35;;;;;;;2.60;2.33;;;;;;;19.98;86.92;100756.31;5055039;28;20037;-58